KCRQ

McClellan-Palomar Airport

Airport
ICAO code
KCRQ
IATA Code
CLD
Summary
ICAO Region
NAM
ICAO Territory
Location

Carlsbad, California

Serving
San Diego County
Elevation
331 ft
Coordinates
33° 7' 36" N , 117° 16' 44" W
KCC
Metar
Observation
KCRQ 080753Z AUTO 00000KT 10SM CLR 09/06 A3027 RMK AO2 SLP251 T00890061 401670089
Station
Carlsbad, McClellan-Palomar Airport
Date/Time
2022-12-08 07:53:00
Wind direction
Wind speed
00 kts
Lowest cloud amount
n/a
Temperature
8.9°C
Dew point
6.1°C
Humidity
82%
Weather condition
n/a

McClellan–Palomar Airport, known to locals as Palomar Airport, is a public airport located 5 km southeast of the central business district of Carlsbad, a city in San Diego County, California.

Climatology

Mediterranean (Köppen climate classification Csb)

Airport map

Aerial View

SKYbrary Partners:

Safety knowledge contributed by: